createdAt,value
2018-08-03T00:00:07.434Z,44
2018-08-03T00:00:19.923Z,44
2018-08-03T00:00:32.366Z,44
2018-08-03T00:00:44.823Z,44
2018-08-03T00:00:57.265Z,14
2018-08-03T00:01:09.683Z,5
2018-08-03T00:01:22.138Z,5
2018-08-03T00:01:34.576Z,5
2018-08-03T00:01:46.987Z,31
2018-08-03T00:01:59.402Z,36
2018-08-03T00:02:11.830Z,36
2018-08-03T00:02:24.331Z,36
2018-08-03T00:02:36.736Z,36
2018-08-03T00:02:49.148Z,36
2018-08-03T00:03:01.584Z,36
2018-08-03T00:03:13.998Z,36
2018-08-03T00:03:26.397Z,36
2018-08-03T00:03:38.801Z,36
2018-08-03T00:03:51.219Z,36
2018-08-03T00:04:03.933Z,36
2018-08-03T00:04:16.359Z,36
2018-08-03T00:04:28.786Z,28
2018-08-03T00:04:41.216Z,28
2018-08-03T00:04:53.625Z,30
2018-08-03T00:05:06.035Z,30
2018-08-03T00:05:18.453Z,5
2018-08-03T00:05:30.897Z,344
2018-08-03T00:05:43.375Z,344
2018-08-03T00:05:55.798Z,344
2018-08-03T00:06:08.238Z,346
2018-08-03T00:06:20.665Z,37
2018-08-03T00:06:33.222Z,12
2018-08-03T00:06:45.641Z,12
2018-08-03T00:06:58.043Z,12
2018-08-03T00:07:10.476Z,12
2018-08-03T00:07:22.899Z,14
2018-08-03T00:07:35.299Z,14
2018-08-03T00:07:47.722Z,14
2018-08-03T00:08:00.144Z,13
2018-08-03T00:08:12.631Z,12
2018-08-03T00:08:25.055Z,12
2018-08-03T00:08:37.471Z,12
2018-08-03T00:08:49.904Z,12
2018-08-03T00:09:02.312Z,22
2018-08-03T00:09:14.875Z,5
2018-08-03T00:09:27.279Z,5
2018-08-03T00:09:39.670Z,5
2018-08-03T00:09:52.074Z,5
2018-08-03T00:10:04.491Z,5
2018-08-03T00:10:16.938Z,355
2018-08-03T00:10:29.383Z,355
2018-08-03T00:10:41.823Z,355
2018-08-03T00:10:54.260Z,360
2018-08-03T00:11:06.680Z,355
2018-08-03T00:11:19.082Z,355
2018-08-03T00:11:31.491Z,355
2018-08-03T00:11:43.907Z,16
2018-08-03T00:11:56.344Z,9
2018-08-03T00:12:08.759Z,5
2018-08-03T00:12:21.171Z,5
2018-08-03T00:12:33.608Z,5
2018-08-03T00:12:46.022Z,5
2018-08-03T00:12:58.427Z,5
2018-08-03T00:13:10.849Z,5
2018-08-03T00:13:23.255Z,5
2018-08-03T00:13:35.671Z,5
2018-08-03T00:13:48.113Z,5
2018-08-03T00:14:00.670Z,5
2018-08-03T00:14:13.076Z,5
2018-08-03T00:14:25.518Z,5
2018-08-03T00:14:37.943Z,5
2018-08-03T00:14:50.359Z,5
2018-08-03T00:15:02.913Z,5
2018-08-03T00:15:15.341Z,5
2018-08-03T00:15:27.801Z,5
2018-08-03T00:15:40.267Z,5
2018-08-03T00:15:52.733Z,5
2018-08-03T00:16:05.231Z,5
2018-08-03T00:16:17.653Z,5
2018-08-03T00:16:30.244Z,5
2018-08-03T00:16:42.648Z,5
2018-08-03T00:16:55.059Z,5
2018-08-03T00:17:07.465Z,5
2018-08-03T00:17:19.866Z,5
2018-08-03T00:17:32.247Z,5
2018-08-03T00:17:44.642Z,36
2018-08-03T00:17:57.059Z,36
2018-08-03T00:18:09.463Z,36
2018-08-03T00:18:21.867Z,36
2018-08-03T00:18:34.255Z,36
2018-08-03T00:18:46.882Z,36
2018-08-03T00:18:59.292Z,36
2018-08-03T00:19:11.705Z,36
2018-08-03T00:19:24.188Z,36
2018-08-03T00:19:36.765Z,36
2018-08-03T00:19:49.163Z,36
2018-08-03T00:20:01.583Z,36
2018-08-03T00:20:14.010Z,25
2018-08-03T00:20:26.452Z,51
2018-08-03T00:20:38.845Z,42
2018-08-03T00:20:51.246Z,33
2018-08-03T00:21:03.681Z,63
2018-08-03T00:21:16.227Z,28
2018-08-03T00:21:28.804Z,34
2018-08-03T00:21:41.211Z,36
2018-08-03T00:21:53.679Z,48
2018-08-03T00:22:06.097Z,16
2018-08-03T00:22:18.502Z,48
2018-08-03T00:22:30.926Z,52
2018-08-03T00:22:43.333Z,52
2018-08-03T00:22:55.738Z,52
2018-08-03T00:23:08.186Z,52
2018-08-03T00:23:20.586Z,52
2018-08-03T00:23:32.981Z,52
2018-08-03T00:23:45.389Z,52
2018-08-03T00:23:57.812Z,52
2018-08-03T00:24:10.228Z,52
2018-08-03T00:24:22.631Z,73
2018-08-03T00:24:35.041Z,65
2018-08-03T00:24:47.444Z,50
2018-08-03T00:24:59.854Z,31
2018-08-03T00:25:12.265Z,30
2018-08-03T00:25:24.707Z,53
2018-08-03T00:25:37.105Z,48
2018-08-03T00:25:49.523Z,55
2018-08-03T00:26:01.936Z,46
2018-08-03T00:26:14.341Z,62
2018-08-03T00:26:26.764Z,66
2018-08-03T00:26:39.166Z,65
2018-08-03T00:26:51.657Z,65
2018-08-03T00:27:04.052Z,77
2018-08-03T00:27:16.533Z,76
2018-08-03T00:27:28.944Z,70
2018-08-03T00:27:41.379Z,76
2018-08-03T00:27:53.795Z,55
2018-08-03T00:28:06.204Z,56
2018-08-03T00:28:18.644Z,34
2018-08-03T00:28:31.054Z,34
2018-08-03T00:28:43.481Z,34
2018-08-03T00:28:55.925Z,355
2018-08-03T00:29:08.349Z,360
2018-08-03T00:29:20.758Z,43
2018-08-03T00:29:33.204Z,44
2018-08-03T00:29:45.686Z,51
2018-08-03T00:29:58.097Z,59
2018-08-03T00:30:10.509Z,59
2018-08-03T00:30:22.942Z,59
2018-08-03T00:30:35.366Z,59
2018-08-03T00:30:47.753Z,59
2018-08-03T00:31:00.279Z,59
2018-08-03T00:31:12.710Z,59
2018-08-03T00:31:25.142Z,59
2018-08-03T00:31:37.562Z,13
2018-08-03T00:31:49.962Z,13
2018-08-03T00:32:02.389Z,15
2018-08-03T00:32:14.786Z,15
2018-08-03T00:32:27.208Z,15
2018-08-03T00:32:39.676Z,15
2018-08-03T00:32:52.171Z,55
2018-08-03T00:33:04.597Z,64
2018-08-03T00:33:17.018Z,63
2018-08-03T00:33:29.419Z,63
2018-08-03T00:33:41.828Z,63
2018-08-03T00:33:54.231Z,63
2018-08-03T00:34:06.709Z,19
2018-08-03T00:34:19.142Z,14
2018-08-03T00:34:31.532Z,360
2018-08-03T00:34:43.932Z,342
2018-08-03T00:34:56.358Z,351
2018-08-03T00:35:08.769Z,360
2018-08-03T00:35:21.170Z,26
2018-08-03T00:35:33.564Z,51
2018-08-03T00:35:46.002Z,51
2018-08-03T00:35:58.460Z,50
2018-08-03T00:36:10.860Z,57
2018-08-03T00:36:23.275Z,13
2018-08-03T00:36:35.668Z,5
2018-08-03T00:36:48.088Z,11
2018-08-03T00:37:00.512Z,46
2018-08-03T00:37:12.932Z,46
2018-08-03T00:37:25.340Z,46
2018-08-03T00:37:37.756Z,46
2018-08-03T00:37:50.172Z,46
2018-08-03T00:38:02.559Z,46
2018-08-03T00:38:14.962Z,46
2018-08-03T00:38:27.401Z,46
2018-08-03T00:38:39.805Z,53
2018-08-03T00:38:52.204Z,53
2018-08-03T00:39:04.619Z,53
2018-08-03T00:39:17.024Z,53
2018-08-03T00:39:29.429Z,18
2018-08-03T00:39:41.941Z,67
2018-08-03T00:39:54.381Z,45
2018-08-03T00:40:06.812Z,59
2018-08-03T00:40:19.211Z,5
2018-08-03T00:40:31.607Z,355
2018-08-03T00:40:44.010Z,355
2018-08-03T00:40:56.420Z,355
2018-08-03T00:41:08.849Z,355
2018-08-03T00:41:21.263Z,355
2018-08-03T00:41:33.680Z,355
2018-08-03T00:41:46.116Z,355
2018-08-03T00:41:58.557Z,10
2018-08-03T00:42:10.970Z,10
2018-08-03T00:42:23.416Z,10
2018-08-03T00:42:35.820Z,10
2018-08-03T00:42:48.239Z,14
2018-08-03T00:43:00.631Z,9
2018-08-03T00:43:13.038Z,350
2018-08-03T00:43:25.445Z,338
2018-08-03T00:43:37.880Z,355
2018-08-03T00:43:50.301Z,355
2018-08-03T00:44:02.742Z,25
2018-08-03T00:44:15.225Z,23
2018-08-03T00:44:27.717Z,5
2018-08-03T00:44:40.198Z,9
2018-08-03T00:44:52.660Z,9
2018-08-03T00:45:05.101Z,9
2018-08-03T00:45:17.557Z,5
2018-08-03T00:45:29.995Z,5
2018-08-03T00:45:42.419Z,5
2018-08-03T00:45:54.838Z,5
2018-08-03T00:46:07.247Z,5
2018-08-03T00:46:19.671Z,5
2018-08-03T00:46:32.070Z,5
2018-08-03T00:46:44.488Z,5
2018-08-03T00:46:56.885Z,331
2018-08-03T00:47:09.285Z,330
2018-08-03T00:47:21.718Z,330
2018-08-03T00:47:34.113Z,24
2018-08-03T00:47:46.563Z,17
2018-08-03T00:47:59.117Z,5
2018-08-03T00:48:11.538Z,340
2018-08-03T00:48:23.955Z,360
2018-08-03T00:48:36.348Z,355
2018-08-03T00:48:48.741Z,355
2018-08-03T00:49:01.375Z,36
2018-08-03T00:49:13.789Z,34
2018-08-03T00:49:26.237Z,39
2018-08-03T00:49:38.661Z,34
2018-08-03T00:49:51.261Z,5
2018-08-03T00:50:03.664Z,348
2018-08-03T00:50:16.068Z,9
2018-08-03T00:50:28.492Z,25
2018-08-03T00:50:40.917Z,15
2018-08-03T00:50:53.319Z,11
2018-08-03T00:51:05.893Z,344
2018-08-03T00:51:18.282Z,331
2018-08-03T00:51:30.821Z,331
2018-08-03T00:51:43.219Z,355
2018-08-03T00:51:55.613Z,9
2018-08-03T00:52:08.022Z,9
2018-08-03T00:52:20.414Z,28
2018-08-03T00:52:32.816Z,50
2018-08-03T00:52:45.228Z,44
2018-08-03T00:52:57.632Z,22
2018-08-03T00:53:10.036Z,72
2018-08-03T00:53:22.463Z,74
2018-08-03T00:53:34.857Z,61
2018-08-03T00:53:47.265Z,59
2018-08-03T00:53:59.689Z,51
2018-08-03T00:54:12.079Z,51
2018-08-03T00:54:24.466Z,53
2018-08-03T00:54:36.861Z,53
2018-08-03T00:54:49.273Z,49
2018-08-03T00:55:01.690Z,34
2018-08-03T00:55:14.137Z,51
2018-08-03T00:55:26.570Z,51
2018-08-03T00:55:38.982Z,51
2018-08-03T00:55:51.432Z,71
2018-08-03T00:56:03.865Z,56
2018-08-03T00:56:16.263Z,58
2018-08-03T00:56:29.572Z,49
2018-08-03T00:56:41.989Z,49
2018-08-03T00:56:54.391Z,59
2018-08-03T00:57:06.805Z,46
2018-08-03T00:57:19.191Z,47
2018-08-03T00:57:31.595Z,54
2018-08-03T00:57:44.004Z,53
2018-08-03T00:57:56.436Z,53
2018-08-03T00:58:08.823Z,53
2018-08-03T00:58:21.227Z,54
2018-08-03T00:58:33.655Z,75
2018-08-03T00:58:46.055Z,65
2018-08-03T00:58:58.488Z,65
2018-08-03T00:59:10.901Z,68
2018-08-03T00:59:23.496Z,124
2018-08-03T00:59:35.909Z,126
2018-08-03T00:59:48.354Z,126
2018-08-03T01:00:00.744Z,126
2018-08-03T01:00:13.165Z,126
2018-08-03T01:00:25.584Z,78
2018-08-03T01:00:38.016Z,66
2018-08-03T01:00:50.440Z,69
2018-08-03T01:01:03.023Z,69
2018-08-03T01:01:15.479Z,69
2018-08-03T01:01:27.926Z,69
2018-08-03T01:01:40.394Z,44
2018-08-03T01:01:52.805Z,36
2018-08-03T01:02:05.261Z,34
2018-08-03T01:02:17.853Z,36
2018-08-03T01:02:30.269Z,41
2018-08-03T01:02:42.715Z,41
2018-08-03T01:02:55.165Z,81
2018-08-03T01:03:07.558Z,82
2018-08-03T01:03:19.976Z,82
2018-08-03T01:03:32.390Z,80
2018-08-03T01:03:44.784Z,80
2018-08-03T01:03:57.192Z,79
2018-08-03T01:04:09.628Z,78
2018-08-03T01:04:22.110Z,78
2018-08-03T01:04:34.572Z,78
2018-08-03T01:04:47.036Z,79
2018-08-03T01:04:59.469Z,101
2018-08-03T01:05:11.932Z,55
2018-08-03T01:05:24.387Z,55
2018-08-03T01:05:36.812Z,55
2018-08-03T01:05:49.220Z,57
2018-08-03T01:06:01.642Z,57
2018-08-03T01:06:14.116Z,57
2018-08-03T01:06:26.535Z,57
2018-08-03T01:06:38.990Z,57
2018-08-03T01:06:51.404Z,57
2018-08-03T01:07:03.826Z,57
2018-08-03T01:07:16.295Z,74
2018-08-03T01:07:28.697Z,74
2018-08-03T01:07:41.100Z,113
2018-08-03T01:07:53.497Z,82
2018-08-03T01:08:05.916Z,82
2018-08-03T01:08:18.315Z,82
2018-08-03T01:08:30.744Z,82
2018-08-03T01:08:43.185Z,82
2018-08-03T01:08:55.636Z,82
2018-08-03T01:09:08.030Z,82
2018-08-03T01:09:20.592Z,82
2018-08-03T01:09:33.010Z,82
2018-08-03T01:09:45.417Z,82
2018-08-03T01:09:57.810Z,47
2018-08-03T01:10:10.253Z,56
2018-08-03T01:10:22.657Z,29
2018-08-03T01:10:35.054Z,28
2018-08-03T01:10:47.495Z,28
2018-08-03T01:10:59.935Z,71
2018-08-03T01:11:12.344Z,71
2018-08-03T01:11:24.737Z,71
2018-08-03T01:11:37.143Z,71
2018-08-03T01:11:49.535Z,71
2018-08-03T01:12:01.925Z,69
2018-08-03T01:12:14.322Z,59
2018-08-03T01:12:26.721Z,55
2018-08-03T01:12:39.147Z,63
2018-08-03T01:12:51.544Z,63
2018-08-03T01:13:04.012Z,59
2018-08-03T01:13:16.460Z,58
2018-08-03T01:13:28.868Z,49
2018-08-03T01:13:41.293Z,51
2018-08-03T01:13:53.683Z,54
2018-08-03T01:14:06.087Z,54
2018-08-03T01:14:18.522Z,54
2018-08-03T01:14:31.062Z,54
2018-08-03T01:14:43.459Z,54
2018-08-03T01:14:55.945Z,54
2018-08-03T01:15:08.364Z,54
2018-08-03T01:15:20.767Z,55
2018-08-03T01:15:33.160Z,59
2018-08-03T01:15:45.598Z,68
2018-08-03T01:15:58.024Z,69
2018-08-03T01:16:10.406Z,69
2018-08-03T01:16:22.817Z,69
2018-08-03T01:16:35.223Z,69
2018-08-03T01:16:47.699Z,76
2018-08-03T01:17:00.112Z,70
2018-08-03T01:17:12.528Z,69
2018-08-03T01:17:24.946Z,69
2018-08-03T01:17:37.352Z,69
2018-08-03T01:17:49.743Z,69
2018-08-03T01:18:02.146Z,78
2018-08-03T01:18:14.579Z,85
2018-08-03T01:18:27.005Z,92
2018-08-03T01:18:39.429Z,52
2018-08-03T01:18:51.845Z,67
2018-08-03T01:19:04.241Z,59
2018-08-03T01:19:17.045Z,59
2018-08-03T01:19:29.437Z,64
2018-08-03T01:19:42.085Z,100
2018-08-03T01:19:54.508Z,105
2018-08-03T01:20:06.923Z,98
2018-08-03T01:20:19.317Z,98
2018-08-03T01:20:31.721Z,36
2018-08-03T01:20:44.144Z,35
2018-08-03T01:20:56.546Z,34
2018-08-03T01:21:09.121Z,24
2018-08-03T01:21:21.522Z,32
2018-08-03T01:21:33.907Z,32
2018-08-03T01:21:46.527Z,32
2018-08-03T01:21:58.919Z,32
2018-08-03T01:22:11.338Z,32
2018-08-03T01:22:23.736Z,32
2018-08-03T01:22:36.140Z,32
2018-08-03T01:22:48.537Z,32
2018-08-03T01:23:00.930Z,32
2018-08-03T01:23:13.344Z,32
2018-08-03T01:23:25.749Z,36
2018-08-03T01:23:38.138Z,36
2018-08-03T01:23:50.539Z,43
2018-08-03T01:24:02.992Z,43
2018-08-03T01:24:15.421Z,43
2018-08-03T01:24:27.877Z,43
2018-08-03T01:24:40.292Z,43
2018-08-03T01:24:52.697Z,47
2018-08-03T01:25:05.102Z,46
2018-08-03T01:25:17.649Z,58
2018-08-03T01:25:30.082Z,35
2018-08-03T01:25:42.483Z,48
2018-08-03T01:25:54.891Z,49
2018-08-03T01:26:07.287Z,48
2018-08-03T01:26:19.699Z,107
2018-08-03T01:26:32.112Z,60
2018-08-03T01:26:44.516Z,74
2018-08-03T01:26:56.903Z,70
2018-08-03T01:27:09.299Z,88
2018-08-03T01:27:21.713Z,89
2018-08-03T01:27:34.165Z,78
2018-08-03T01:27:46.564Z,70
2018-08-03T01:27:58.977Z,57
2018-08-03T01:28:11.416Z,37
2018-08-03T01:28:23.829Z,33
2018-08-03T01:28:36.486Z,42
2018-08-03T01:28:48.901Z,79
2018-08-03T01:29:01.330Z,79
2018-08-03T01:29:13.723Z,79
2018-08-03T01:29:26.145Z,74
2018-08-03T01:29:38.690Z,62
2018-08-03T01:29:51.090Z,62
2018-08-03T01:30:03.553Z,62
2018-08-03T01:30:15.981Z,62
2018-08-03T01:30:28.384Z,62
2018-08-03T01:30:40.781Z,62
2018-08-03T01:30:53.179Z,62
2018-08-03T01:31:05.590Z,62
2018-08-03T01:31:18.012Z,62
2018-08-03T01:31:30.436Z,62
2018-08-03T01:31:42.875Z,62
2018-08-03T01:31:55.283Z,62
2018-08-03T01:32:07.690Z,62
2018-08-03T01:32:20.088Z,62
2018-08-03T01:32:32.565Z,62
2018-08-03T01:32:44.968Z,62
2018-08-03T01:32:57.402Z,62
2018-08-03T01:33:09.816Z,62
2018-08-03T01:33:22.236Z,62
2018-08-03T01:33:34.656Z,62
2018-08-03T01:33:47.060Z,62
2018-08-03T01:33:59.500Z,62
2018-08-03T01:34:11.928Z,62
2018-08-03T01:34:24.331Z,62
2018-08-03T01:34:36.743Z,62
2018-08-03T01:34:49.146Z,62
2018-08-03T01:35:01.560Z,62
2018-08-03T01:35:14.061Z,62
2018-08-03T01:35:26.473Z,62
2018-08-03T01:35:38.926Z,62
2018-08-03T01:35:51.344Z,62
2018-08-03T01:36:03.761Z,62
2018-08-03T01:36:16.184Z,62
2018-08-03T01:36:28.616Z,62
2018-08-03T01:36:41.019Z,62
2018-08-03T01:36:53.462Z,62
2018-08-03T01:37:05.871Z,62
2018-08-03T01:37:18.290Z,62
2018-08-03T01:37:30.684Z,62
2018-08-03T01:37:43.132Z,62
2018-08-03T01:37:56.202Z,62
2018-08-03T01:38:09.034Z,99
2018-08-03T01:38:21.449Z,101
2018-08-03T01:38:33.852Z,101
2018-08-03T01:38:46.262Z,101
2018-08-03T01:38:58.672Z,101
2018-08-03T01:39:11.078Z,101
2018-08-03T01:39:23.515Z,101
2018-08-03T01:39:36.173Z,101
2018-08-03T01:39:48.637Z,101
2018-08-03T01:40:01.050Z,100
2018-08-03T01:40:13.463Z,100
2018-08-03T01:40:25.875Z,104
2018-08-03T01:40:38.295Z,66
2018-08-03T01:40:50.761Z,90
2018-08-03T01:41:03.176Z,63
2018-08-03T01:41:15.595Z,83
2018-08-03T01:41:28.001Z,73
2018-08-03T01:41:40.407Z,73
2018-08-03T01:41:52.819Z,73
2018-08-03T01:42:05.259Z,68
2018-08-03T01:42:17.649Z,98
2018-08-03T01:42:30.073Z,103
2018-08-03T01:42:42.467Z,83
2018-08-03T01:42:54.898Z,46
2018-08-03T01:43:07.325Z,64
2018-08-03T01:43:19.741Z,52
2018-08-03T01:43:32.187Z,88
2018-08-03T01:43:44.610Z,103
2018-08-03T01:43:57.021Z,103
2018-08-03T01:44:09.477Z,16
2018-08-03T01:44:21.888Z,62
2018-08-03T01:44:34.315Z,39
2018-08-03T01:44:46.716Z,45
2018-08-03T01:44:59.128Z,61
2018-08-03T01:45:11.543Z,82
2018-08-03T01:45:23.964Z,67
2018-08-03T01:45:36.534Z,126
2018-08-03T01:45:48.943Z,126
2018-08-03T01:46:01.355Z,103
2018-08-03T01:46:13.777Z,45
2018-08-03T01:46:26.194Z,26
2018-08-03T01:46:38.597Z,24
2018-08-03T01:46:51.006Z,10
2018-08-03T01:47:03.414Z,10
2018-08-03T01:47:15.805Z,30
2018-08-03T01:47:28.200Z,35
2018-08-03T01:47:40.591Z,59
2018-08-03T01:47:52.987Z,55
2018-08-03T01:48:05.403Z,55
2018-08-03T01:48:17.816Z,55
2018-08-03T01:48:30.279Z,55
2018-08-03T01:48:42.712Z,55
2018-08-03T01:48:55.186Z,55
2018-08-03T01:49:07.598Z,55
2018-08-03T01:49:20.023Z,55
2018-08-03T01:49:32.455Z,55
2018-08-03T01:49:44.885Z,55
2018-08-03T01:49:57.291Z,55
2018-08-03T01:50:09.923Z,55
2018-08-03T01:50:22.338Z,55
2018-08-03T01:50:34.750Z,55
2018-08-03T01:50:47.163Z,55
2018-08-03T01:50:59.584Z,55
2018-08-03T01:51:12.133Z,55
2018-08-03T01:51:24.624Z,55
2018-08-03T01:51:37.039Z,55
2018-08-03T01:51:49.426Z,55
2018-08-03T01:52:01.881Z,55
2018-08-03T01:52:14.275Z,55
2018-08-03T01:52:26.675Z,55
2018-08-03T01:52:39.092Z,55
2018-08-03T01:52:51.515Z,55
2018-08-03T01:53:03.915Z,55
2018-08-03T01:53:16.315Z,55
2018-08-03T01:53:28.723Z,55
2018-08-03T01:53:41.154Z,55
2018-08-03T01:53:53.561Z,55
2018-08-03T01:54:05.971Z,55
2018-08-03T01:54:18.388Z,55
2018-08-03T01:54:30.825Z,55
2018-08-03T01:54:43.266Z,53
2018-08-03T01:54:55.670Z,59
2018-08-03T01:55:08.085Z,86
2018-08-03T01:55:20.489Z,90
2018-08-03T01:55:32.919Z,53
2018-08-03T01:55:45.335Z,43
2018-08-03T01:55:58.436Z,52
2018-08-03T01:56:10.831Z,53
2018-08-03T01:56:23.226Z,86
2018-08-03T01:56:35.647Z,76
2018-08-03T01:56:48.153Z,54
2018-08-03T01:57:00.560Z,56
2018-08-03T01:57:12.978Z,56
2018-08-03T01:57:25.449Z,42
2018-08-03T01:57:37.869Z,350
2018-08-03T01:57:50.286Z,12
2018-08-03T01:58:02.683Z,73
2018-08-03T01:58:15.068Z,83
2018-08-03T01:58:27.487Z,96
2018-08-03T01:58:39.885Z,78
2018-08-03T01:58:52.357Z,78
2018-08-03T01:59:05.164Z,57
2018-08-03T01:59:18.391Z,61
2018-08-03T01:59:31.167Z,36
2018-08-03T01:59:43.590Z,36
2018-08-03T01:59:55.987Z,47
2018-08-03T02:00:08.424Z,28
2018-08-03T02:00:20.850Z,18
2018-08-03T02:00:33.296Z,28
2018-08-03T02:00:45.748Z,64
2018-08-03T02:00:58.199Z,64
2018-08-03T02:01:10.607Z,83
2018-08-03T02:01:23.024Z,82
2018-08-03T02:01:35.454Z,65
2018-08-03T02:01:47.881Z,86
2018-08-03T02:02:00.310Z,89
2018-08-03T02:02:12.723Z,89
2018-08-03T02:02:25.213Z,76
2018-08-03T02:02:37.634Z,76
2018-08-03T02:02:50.039Z,76
2018-08-03T02:03:02.469Z,76
2018-08-03T02:03:15.224Z,76
2018-08-03T02:03:28.233Z,76
2018-08-03T02:03:40.645Z,47
2018-08-03T02:03:53.041Z,41
2018-08-03T02:04:05.460Z,40
2018-08-03T02:04:17.877Z,44
2018-08-03T02:04:30.301Z,71
2018-08-03T02:04:42.703Z,79
2018-08-03T02:04:55.109Z,78
2018-08-03T02:05:07.550Z,71
2018-08-03T02:05:19.949Z,71
2018-08-03T02:05:32.357Z,71
2018-08-03T02:05:44.781Z,71
2018-08-03T02:05:57.184Z,71
2018-08-03T02:06:09.565Z,48
2018-08-03T02:06:21.970Z,26
2018-08-03T02:06:34.383Z,46
2018-08-03T02:06:46.781Z,77
2018-08-03T02:06:59.202Z,70
2018-08-03T02:07:11.643Z,98
2018-08-03T02:07:24.116Z,101
2018-08-03T02:07:36.524Z,71
2018-08-03T02:07:48.938Z,71
2018-08-03T02:08:01.389Z,71
2018-08-03T02:08:13.798Z,71
2018-08-03T02:08:26.201Z,71
2018-08-03T02:08:38.611Z,71
2018-08-03T02:08:51.049Z,71
2018-08-03T02:09:03.451Z,71
2018-08-03T02:09:16.061Z,71
2018-08-03T02:09:28.464Z,71
2018-08-03T02:09:40.892Z,71
2018-08-03T02:09:53.312Z,71
2018-08-03T02:10:05.728Z,71
2018-08-03T02:10:18.133Z,71
2018-08-03T02:10:30.533Z,71
2018-08-03T02:10:42.941Z,71
2018-08-03T02:10:55.325Z,71
2018-08-03T02:11:07.725Z,71
2018-08-03T02:11:20.131Z,71
2018-08-03T02:11:32.532Z,71
2018-08-03T02:11:44.988Z,71
2018-08-03T02:11:57.436Z,71
2018-08-03T02:12:09.875Z,82
2018-08-03T02:12:22.283Z,134
2018-08-03T02:12:34.693Z,93
2018-08-03T02:12:47.133Z,93
2018-08-03T02:12:59.539Z,93
2018-08-03T02:13:11.944Z,81
2018-08-03T02:13:24.376Z,81
2018-08-03T02:13:36.788Z,80
2018-08-03T02:13:49.201Z,82
2018-08-03T02:14:01.598Z,82
2018-08-03T02:14:14.036Z,87
2018-08-03T02:14:26.491Z,98
2018-08-03T02:14:38.890Z,85
2018-08-03T02:14:51.307Z,80
2018-08-03T02:15:03.908Z,107
2018-08-03T02:15:16.440Z,106
2018-08-03T02:15:28.846Z,71
2018-08-03T02:15:41.258Z,71
2018-08-03T02:15:53.666Z,71
2018-08-03T02:16:06.092Z,71
2018-08-03T02:16:18.489Z,71
2018-08-03T02:16:30.898Z,57
2018-08-03T02:16:43.317Z,49
2018-08-03T02:16:55.733Z,49
2018-08-03T02:17:08.154Z,78
2018-08-03T02:17:20.557Z,57
2018-08-03T02:17:32.965Z,69
2018-08-03T02:17:45.436Z,78
2018-08-03T02:17:57.860Z,67
2018-08-03T02:18:10.304Z,73
2018-08-03T02:18:22.775Z,73
2018-08-03T02:18:35.243Z,73
2018-08-03T02:18:47.680Z,73
2018-08-03T02:19:00.097Z,73
2018-08-03T02:19:12.494Z,73
2018-08-03T02:19:24.894Z,73
2018-08-03T02:19:37.575Z,73
2018-08-03T02:19:50.142Z,74
2018-08-03T02:20:02.563Z,74
2018-08-03T02:20:14.972Z,74
2018-08-03T02:20:27.381Z,89
2018-08-03T02:20:39.816Z,105
2018-08-03T02:20:52.224Z,100
2018-08-03T02:21:04.895Z,47
2018-08-03T02:21:17.333Z,47
2018-08-03T02:21:29.755Z,50
2018-08-03T02:21:42.182Z,50
2018-08-03T02:21:54.743Z,28
2018-08-03T02:22:07.142Z,24
2018-08-03T02:22:19.555Z,49
2018-08-03T02:22:31.961Z,47
2018-08-03T02:22:44.378Z,47
2018-08-03T02:22:56.858Z,47
2018-08-03T02:23:09.267Z,47
2018-08-03T02:23:21.657Z,47
2018-08-03T02:23:34.129Z,47
2018-08-03T02:23:46.544Z,33
2018-08-03T02:23:58.942Z,33
2018-08-03T02:24:11.335Z,33
2018-08-03T02:24:23.754Z,33
2018-08-03T02:24:36.243Z,33
2018-08-03T02:24:48.656Z,33
2018-08-03T02:25:01.075Z,33
2018-08-03T02:25:13.496Z,33
2018-08-03T02:25:25.895Z,33
2018-08-03T02:25:38.289Z,33
2018-08-03T02:25:50.710Z,33
2018-08-03T02:26:03.130Z,33
2018-08-03T02:26:15.819Z,33
2018-08-03T02:26:28.209Z,33
2018-08-03T02:26:40.714Z,33
2018-08-03T02:26:53.134Z,33
2018-08-03T02:27:05.549Z,33
2018-08-03T02:27:17.974Z,33
2018-08-03T02:27:30.376Z,33
2018-08-03T02:27:42.801Z,33
2018-08-03T02:27:55.211Z,33
2018-08-03T02:28:07.671Z,33
2018-08-03T02:28:20.095Z,53
2018-08-03T02:28:32.498Z,79
2018-08-03T02:28:44.914Z,62
2018-08-03T02:28:57.327Z,62
2018-08-03T02:29:09.783Z,62
2018-08-03T02:29:22.217Z,62
2018-08-03T02:29:34.611Z,62
2018-08-03T02:29:47.058Z,62
2018-08-03T02:29:59.499Z,62
2018-08-03T02:30:11.939Z,62
2018-08-03T02:30:24.428Z,62
2018-08-03T02:30:36.863Z,62
2018-08-03T02:30:49.286Z,62
2018-08-03T02:31:01.707Z,62
2018-08-03T02:31:14.158Z,28
2018-08-03T02:31:26.585Z,28
2018-08-03T02:31:39.023Z,28
2018-08-03T02:31:51.470Z,28
2018-08-03T02:32:03.994Z,28
2018-08-03T02:32:16.394Z,28
2018-08-03T02:32:28.823Z,28
2018-08-03T02:32:41.305Z,28
2018-08-03T02:32:53.732Z,46
2018-08-03T02:33:06.364Z,46
2018-08-03T02:33:18.817Z,46
2018-08-03T02:33:31.253Z,46
2018-08-03T02:33:43.727Z,46
2018-08-03T02:33:56.209Z,46
2018-08-03T02:34:08.676Z,46
2018-08-03T02:34:21.142Z,46
2018-08-03T02:34:33.631Z,46
2018-08-03T02:34:46.162Z,46
2018-08-03T02:34:58.589Z,46
2018-08-03T02:35:11.075Z,48
2018-08-03T02:35:23.532Z,46
2018-08-03T02:35:35.987Z,46
2018-08-03T02:35:48.415Z,46
2018-08-03T02:36:00.861Z,46
2018-08-03T02:36:13.325Z,46
2018-08-03T02:36:25.771Z,46
2018-08-03T02:36:38.231Z,46
2018-08-03T02:36:50.706Z,46
2018-08-03T02:37:03.192Z,46
2018-08-03T02:37:15.653Z,50
2018-08-03T02:37:28.100Z,77
2018-08-03T02:37:40.565Z,47
2018-08-03T02:37:53.036Z,49
2018-08-03T02:38:05.457Z,53
2018-08-03T02:38:17.905Z,55
2018-08-03T02:38:30.317Z,54
2018-08-03T02:38:42.742Z,54
2018-08-03T02:38:55.188Z,55
2018-08-03T02:39:07.639Z,54
2018-08-03T02:39:20.064Z,55
2018-08-03T02:39:32.643Z,55
2018-08-03T02:39:45.073Z,55
2018-08-03T02:39:57.538Z,55
2018-08-03T02:40:10.056Z,54
2018-08-03T02:40:22.466Z,55
2018-08-03T02:40:34.953Z,54
2018-08-03T02:40:47.404Z,54
2018-08-03T02:40:59.845Z,43
2018-08-03T02:41:12.287Z,36
2018-08-03T02:41:24.732Z,50
2018-08-03T02:41:37.200Z,50
2018-08-03T02:41:49.651Z,50
2018-08-03T02:42:02.123Z,50
2018-08-03T02:42:14.575Z,50
2018-08-03T02:42:26.985Z,50
2018-08-03T02:42:39.422Z,50
2018-08-03T02:42:51.880Z,50
2018-08-03T02:43:04.323Z,50
2018-08-03T02:43:17.147Z,50
2018-08-03T02:43:29.570Z,50
2018-08-03T02:43:41.983Z,50
2018-08-03T02:43:54.419Z,50
2018-08-03T02:44:06.866Z,50
2018-08-03T02:44:19.290Z,50
2018-08-03T02:44:31.731Z,50
2018-08-03T02:44:44.194Z,50
2018-08-03T02:44:56.640Z,50
2018-08-03T02:45:09.092Z,50
2018-08-03T02:45:21.509Z,50
2018-08-03T02:45:33.964Z,50
2018-08-03T02:45:46.386Z,50
2018-08-03T02:45:58.831Z,61
2018-08-03T02:46:11.244Z,61
2018-08-03T02:46:23.684Z,61
2018-08-03T02:46:36.107Z,60
2018-08-03T02:46:48.509Z,60
2018-08-03T02:47:00.916Z,60
2018-08-03T02:47:13.353Z,60
2018-08-03T02:47:25.784Z,60
2018-08-03T02:47:38.257Z,60
2018-08-03T02:47:50.691Z,60
2018-08-03T02:48:03.141Z,60
2018-08-03T02:48:15.641Z,60
2018-08-03T02:48:28.134Z,36
2018-08-03T02:48:40.688Z,36
2018-08-03T02:48:53.227Z,36
2018-08-03T02:49:05.667Z,36
2018-08-03T02:49:18.137Z,36
2018-08-03T02:49:30.593Z,36
2018-08-03T02:49:43.299Z,36
2018-08-03T02:49:55.736Z,37
2018-08-03T02:50:08.187Z,53
2018-08-03T02:50:20.635Z,53
2018-08-03T02:50:33.096Z,44
2018-08-03T02:50:45.522Z,49
2018-08-03T02:50:57.968Z,46
2018-08-03T02:51:10.496Z,46
2018-08-03T02:51:23.102Z,44
2018-08-03T02:51:35.516Z,44
2018-08-03T02:51:47.945Z,22
2018-08-03T02:52:00.392Z,44
2018-08-03T02:52:12.825Z,44
2018-08-03T02:52:25.270Z,44
2018-08-03T02:52:37.702Z,44
2018-08-03T02:52:50.137Z,44
2018-08-03T02:53:02.568Z,44
2018-08-03T02:53:15.000Z,44
2018-08-03T02:53:27.395Z,44
2018-08-03T02:53:39.814Z,44
2018-08-03T02:53:52.197Z,44
2018-08-03T02:54:04.615Z,44
2018-08-03T02:54:17.019Z,44
2018-08-03T02:54:29.421Z,44
2018-08-03T02:54:41.798Z,44
2018-08-03T02:54:54.239Z,44
2018-08-03T02:55:06.646Z,44
2018-08-03T02:55:19.052Z,44
2018-08-03T02:55:31.439Z,44
2018-08-03T02:55:43.836Z,355
2018-08-03T02:55:56.248Z,5
2018-08-03T02:56:08.680Z,360
2018-08-03T02:56:21.073Z,5
2018-08-03T02:56:33.556Z,5
2018-08-03T02:56:45.979Z,5
2018-08-03T02:56:58.400Z,5
2018-08-03T02:57:10.781Z,5
2018-08-03T02:57:23.178Z,5